sensor_id;sensor_type;location;lat;lon;timestamp;P1;durP1;ratioP1;P2;durP2;ratioP2
30287;SDS011;17103;48.316;11.558;2022-10-14T00:01:15;2.20;;;1.17;;
30287;SDS011;17103;48.316;11.558;2022-10-14T00:03:43;2.58;;;0.95;;
30287;SDS011;17103;48.316;11.558;2022-10-14T00:06:10;2.45;;;0.98;;
30287;SDS011;17103;48.316;11.558;2022-10-14T00:08:40;2.60;;;1.70;;
30287;SDS011;17103;48.316;11.558;2022-10-14T00:11:07;2.55;;;1.10;;
30287;SDS011;17103;48.316;11.558;2022-10-14T00:13:35;2.70;;;1.05;;
30287;SDS011;17103;48.316;11.558;2022-10-14T00:16:02;1.95;;;1.02;;
30287;SDS011;17103;48.316;11.558;2022-10-14T00:18:28;2.92;;;1.10;;
30287;SDS011;17103;48.316;11.558;2022-10-14T00:20:55;1.38;;;0.93;;
30287;SDS011;17103;48.316;11.558;2022-10-14T00:23:25;4.32;;;1.27;;
30287;SDS011;17103;48.316;11.558;2022-10-14T00:25:53;2.42;;;0.98;;
30287;SDS011;17103;48.316;11.558;2022-10-14T00:28:18;1.45;;;1.10;;
30287;SDS011;17103;48.316;11.558;2022-10-14T00:31:00;2.50;;;1.05;;
30287;SDS011;17103;48.316;11.558;2022-10-14T00:33:26;2.35;;;1.00;;
30287;SDS011;17103;48.316;11.558;2022-10-14T00:35:59;5.00;;;1.48;;
30287;SDS011;17103;48.316;11.558;2022-10-14T00:38:26;1.58;;;1.00;;
30287;SDS011;17103;48.316;11.558;2022-10-14T00:40:53;2.00;;;1.15;;
30287;SDS011;17103;48.316;11.558;2022-10-14T00:43:20;4.22;;;1.38;;
30287;SDS011;17103;48.316;11.558;2022-10-14T00:45:46;2.92;;;1.20;;
30287;SDS011;17103;48.316;11.558;2022-10-14T00:48:12;4.25;;;1.83;;
30287;SDS011;17103;48.316;11.558;2022-10-14T00:50:40;3.17;;;1.83;;
30287;SDS011;17103;48.316;11.558;2022-10-14T00:53:07;2.47;;;1.30;;
30287;SDS011;17103;48.316;11.558;2022-10-14T00:55:35;3.35;;;1.50;;
30287;SDS011;17103;48.316;11.558;2022-10-14T00:58:02;4.28;;;1.52;;
30287;SDS011;17103;48.316;11.558;2022-10-14T01:00:28;3.72;;;1.27;;
30287;SDS011;17103;48.316;11.558;2022-10-14T01:02:54;2.13;;;1.40;;
30287;SDS011;17103;48.316;11.558;2022-10-14T01:05:21;4.43;;;1.50;;
30287;SDS011;17103;48.316;11.558;2022-10-14T01:07:59;1.60;;;0.90;;
30287;SDS011;17103;48.316;11.558;2022-10-14T01:15:54;4.00;;;1.88;;
30287;SDS011;17103;48.316;11.558;2022-10-14T01:32:12;3.08;;;1.38;;
30287;SDS011;17103;48.316;11.558;2022-10-14T01:34:55;1.80;;;1.00;;
30287;SDS011;17103;48.316;11.558;2022-10-14T01:37:23;2.15;;;1.40;;
30287;SDS011;17103;48.316;11.558;2022-10-14T01:39:58;2.33;;;1.45;;
30287;SDS011;17103;48.316;11.558;2022-10-14T01:42:30;1.92;;;1.08;;
30287;SDS011;17103;48.316;11.558;2022-10-14T01:45:00;1.45;;;0.80;;
30287;SDS011;17103;48.316;11.558;2022-10-14T01:47:31;2.38;;;1.08;;
30287;SDS011;17103;48.316;11.558;2022-10-14T01:50:10;1.25;;;0.80;;
30287;SDS011;17103;48.316;11.558;2022-10-14T01:52:49;2.30;;;0.80;;
30287;SDS011;17103;48.316;11.558;2022-10-14T01:55:21;1.92;;;1.08;;
30287;SDS011;17103;48.316;11.558;2022-10-14T01:57:50;1.75;;;1.25;;
30287;SDS011;17103;48.316;11.558;2022-10-14T02:00:17;2.35;;;1.15;;
30287;SDS011;17103;48.316;11.558;2022-10-14T02:02:43;2.38;;;1.25;;
30287;SDS011;17103;48.316;11.558;2022-10-14T02:05:31;3.33;;;0.70;;
30287;SDS011;17103;48.316;11.558;2022-10-14T02:08:22;2.25;;;1.00;;
30287;SDS011;17103;48.316;11.558;2022-10-14T02:11:14;2.53;;;1.70;;
30287;SDS011;17103;48.316;11.558;2022-10-14T02:19:40;2.92;;;1.00;;
30287;SDS011;17103;48.316;11.558;2022-10-14T02:24:45;2.85;;;1.70;;
30287;SDS011;17103;48.316;11.558;2022-10-14T02:27:16;1.70;;;1.23;;
30287;SDS011;17103;48.316;11.558;2022-10-14T02:29:45;2.30;;;1.25;;
30287;SDS011;17103;48.316;11.558;2022-10-14T02:32:13;3.22;;;1.88;;
30287;SDS011;17103;48.316;11.558;2022-10-14T02:34:40;1.98;;;1.30;;
30287;SDS011;17103;48.316;11.558;2022-10-14T02:37:09;3.92;;;1.40;;
30287;SDS011;17103;48.316;11.558;2022-10-14T02:39:38;2.92;;;1.20;;
30287;SDS011;17103;48.316;11.558;2022-10-14T02:42:10;2.33;;;1.30;;
30287;SDS011;17103;48.316;11.558;2022-10-14T02:44:35;2.05;;;1.52;;
30287;SDS011;17103;48.316;11.558;2022-10-14T02:47:01;2.40;;;1.42;;
30287;SDS011;17103;48.316;11.558;2022-10-14T02:49:27;2.97;;;1.58;;
30287;SDS011;17103;48.316;11.558;2022-10-14T02:51:53;2.05;;;1.55;;
30287;SDS011;17103;48.316;11.558;2022-10-14T02:54:18;3.00;;;1.48;;
30287;SDS011;17103;48.316;11.558;2022-10-14T02:56:44;2.00;;;1.40;;
30287;SDS011;17103;48.316;11.558;2022-10-14T02:59:10;2.08;;;1.42;;
30287;SDS011;17103;48.316;11.558;2022-10-14T03:01:35;2.00;;;1.20;;
30287;SDS011;17103;48.316;11.558;2022-10-14T03:04:01;1.65;;;1.30;;
30287;SDS011;17103;48.316;11.558;2022-10-14T03:06:27;2.10;;;1.40;;
30287;SDS011;17103;48.316;11.558;2022-10-14T03:08:52;2.85;;;1.50;;
30287;SDS011;17103;48.316;11.558;2022-10-14T03:11:18;1.70;;;1.23;;
30287;SDS011;17103;48.316;11.558;2022-10-14T03:13:44;1.25;;;0.95;;
30287;SDS011;17103;48.316;11.558;2022-10-14T03:16:09;2.22;;;1.30;;
30287;SDS011;17103;48.316;11.558;2022-10-14T03:18:35;2.42;;;1.40;;
30287;SDS011;17103;48.316;11.558;2022-10-14T03:21:00;2.08;;;1.38;;
30287;SDS011;17103;48.316;11.558;2022-10-14T03:23:26;1.67;;;1.10;;
30287;SDS011;17103;48.316;11.558;2022-10-14T03:25:54;1.88;;;1.40;;
30287;SDS011;17103;48.316;11.558;2022-10-14T03:28:19;2.20;;;1.20;;
30287;SDS011;17103;48.316;11.558;2022-10-14T03:30:45;1.63;;;1.10;;
30287;SDS011;17103;48.316;11.558;2022-10-14T03:33:11;3.25;;;1.20;;
30287;SDS011;17103;48.316;11.558;2022-10-14T03:35:36;2.63;;;1.75;;
30287;SDS011;17103;48.316;11.558;2022-10-14T03:38:02;2.60;;;1.25;;
30287;SDS011;17103;48.316;11.558;2022-10-14T03:40:28;2.47;;;1.40;;
30287;SDS011;17103;48.316;11.558;2022-10-14T03:42:58;2.92;;;1.20;;
30287;SDS011;17103;48.316;11.558;2022-10-14T03:45:27;1.70;;;1.23;;
30287;SDS011;17103;48.316;11.558;2022-10-14T03:47:53;2.25;;;1.70;;
30287;SDS011;17103;48.316;11.558;2022-10-14T03:50:19;1.52;;;1.08;;
30287;SDS011;17103;48.316;11.558;2022-10-14T03:52:45;2.70;;;1.48;;
30287;SDS011;17103;48.316;11.558;2022-10-14T03:55:11;2.78;;;1.35;;
30287;SDS011;17103;48.316;11.558;2022-10-14T03:57:37;2.53;;;1.30;;
30287;SDS011;17103;48.316;11.558;2022-10-14T04:00:03;1.60;;;1.40;;
30287;SDS011;17103;48.316;11.558;2022-10-14T04:02:29;5.88;;;1.80;;
30287;SDS011;17103;48.316;11.558;2022-10-14T04:04:55;5.68;;;2.72;;
30287;SDS011;17103;48.316;11.558;2022-10-14T04:07:21;11.52;;;4.53;;
30287;SDS011;17103;48.316;11.558;2022-10-14T04:09:46;11.93;;;4.72;;
30287;SDS011;17103;48.316;11.558;2022-10-14T04:12:12;20.52;;;8.55;;
30287;SDS011;17103;48.316;11.558;2022-10-14T04:14:38;19.45;;;8.45;;
30287;SDS011;17103;48.316;11.558;2022-10-14T04:17:03;15.57;;;6.88;;
30287;SDS011;17103;48.316;11.558;2022-10-14T04:19:29;24.58;;;10.35;;
30287;SDS011;17103;48.316;11.558;2022-10-14T04:21:55;26.90;;;10.15;;
30287;SDS011;17103;48.316;11.558;2022-10-14T04:24:20;27.60;;;10.18;;
30287;SDS011;17103;48.316;11.558;2022-10-14T04:26:48;28.83;;;10.52;;
30287;SDS011;17103;48.316;11.558;2022-10-14T04:29:15;26.42;;;10.20;;
30287;SDS011;17103;48.316;11.558;2022-10-14T04:31:40;14.65;;;6.43;;
30287;SDS011;17103;48.316;11.558;2022-10-14T04:34:06;13.00;;;4.72;;
30287;SDS011;17103;48.316;11.558;2022-10-14T04:36:33;10.50;;;4.65;;
30287;SDS011;17103;48.316;11.558;2022-10-14T04:38:58;10.48;;;4.53;;
30287;SDS011;17103;48.316;11.558;2022-10-14T04:41:24;15.50;;;6.72;;
30287;SDS011;17103;48.316;11.558;2022-10-14T04:43:50;14.05;;;7.03;;
30287;SDS011;17103;48.316;11.558;2022-10-14T04:46:15;21.58;;;10.80;;
30287;SDS011;17103;48.316;11.558;2022-10-14T04:48:41;26.55;;;12.40;;
30287;SDS011;17103;48.316;11.558;2022-10-14T04:51:07;22.27;;;11.48;;
30287;SDS011;17103;48.316;11.558;2022-10-14T04:53:33;18.08;;;8.55;;
30287;SDS011;17103;48.316;11.558;2022-10-14T04:55:59;18.23;;;8.85;;
30287;SDS011;17103;48.316;11.558;2022-10-14T04:58:28;11.18;;;5.70;;
30287;SDS011;17103;48.316;11.558;2022-10-14T05:00:53;11.05;;;5.60;;
30287;SDS011;17103;48.316;11.558;2022-10-14T05:03:19;16.40;;;6.95;;
30287;SDS011;17103;48.316;11.558;2022-10-14T05:05:47;13.50;;;6.28;;
30287;SDS011;17103;48.316;11.558;2022-10-14T05:08:13;12.77;;;5.57;;
30287;SDS011;17103;48.316;11.558;2022-10-14T05:10:39;10.95;;;5.15;;
30287;SDS011;17103;48.316;11.558;2022-10-14T05:13:05;9.73;;;4.55;;
30287;SDS011;17103;48.316;11.558;2022-10-14T05:15:31;11.57;;;4.30;;
30287;SDS011;17103;48.316;11.558;2022-10-14T05:18:03;7.80;;;3.58;;
30287;SDS011;17103;48.316;11.558;2022-10-14T05:20:29;7.88;;;4.22;;
30287;SDS011;17103;48.316;11.558;2022-10-14T05:22:54;4.70;;;2.78;;
30287;SDS011;17103;48.316;11.558;2022-10-14T05:25:20;8.27;;;3.38;;
30287;SDS011;17103;48.316;11.558;2022-10-14T05:27:46;3.90;;;2.35;;
30287;SDS011;17103;48.316;11.558;2022-10-14T05:30:11;4.07;;;2.78;;
30287;SDS011;17103;48.316;11.558;2022-10-14T05:32:37;4.53;;;2.20;;
30287;SDS011;17103;48.316;11.558;2022-10-14T05:35:03;5.60;;;1.98;;
30287;SDS011;17103;48.316;11.558;2022-10-14T05:37:29;3.47;;;1.92;;
30287;SDS011;17103;48.316;11.558;2022-10-14T05:39:55;2.30;;;1.75;;
30287;SDS011;17103;48.316;11.558;2022-10-14T05:42:20;1.70;;;1.35;;
30287;SDS011;17103;48.316;11.558;2022-10-14T05:44:46;2.10;;;1.23;;
30287;SDS011;17103;48.316;11.558;2022-10-14T05:47:12;4.60;;;1.65;;
30287;SDS011;17103;48.316;11.558;2022-10-14T05:49:38;5.25;;;2.38;;
30287;SDS011;17103;48.316;11.558;2022-10-14T05:52:04;3.60;;;2.15;;
30287;SDS011;17103;48.316;11.558;2022-10-14T05:54:30;2.63;;;1.63;;
30287;SDS011;17103;48.316;11.558;2022-10-14T05:56:55;3.20;;;1.65;;
30287;SDS011;17103;48.316;11.558;2022-10-14T05:59:21;2.60;;;2.10;;
30287;SDS011;17103;48.316;11.558;2022-10-14T06:01:47;4.05;;;2.35;;
30287;SDS011;17103;48.316;11.558;2022-10-14T06:04:16;6.07;;;2.97;;
30287;SDS011;17103;48.316;11.558;2022-10-14T06:06:42;4.13;;;2.38;;
30287;SDS011;17103;48.316;11.558;2022-10-14T06:09:08;3.95;;;2.20;;
30287;SDS011;17103;48.316;11.558;2022-10-14T06:11:34;2.83;;;2.03;;
30287;SDS011;17103;48.316;11.558;2022-10-14T06:14:00;2.13;;;1.90;;
30287;SDS011;17103;48.316;11.558;2022-10-14T06:16:25;2.63;;;2.42;;
30287;SDS011;17103;48.316;11.558;2022-10-14T06:18:51;2.20;;;1.60;;
30287;SDS011;17103;48.316;11.558;2022-10-14T06:21:16;3.25;;;1.95;;
30287;SDS011;17103;48.316;11.558;2022-10-14T06:23:42;2.50;;;1.90;;
30287;SDS011;17103;48.316;11.558;2022-10-14T06:26:08;3.78;;;1.60;;
30287;SDS011;17103;48.316;11.558;2022-10-14T06:28:34;4.68;;;1.60;;
30287;SDS011;17103;48.316;11.558;2022-10-14T06:31:00;5.30;;;1.52;;
30287;SDS011;17103;48.316;11.558;2022-10-14T06:33:27;2.15;;;1.38;;
30287;SDS011;17103;48.316;11.558;2022-10-14T06:35:55;3.13;;;1.90;;
30287;SDS011;17103;48.316;11.558;2022-10-14T06:38:21;2.67;;;1.80;;
30287;SDS011;17103;48.316;11.558;2022-10-14T06:40:51;2.17;;;1.60;;
30287;SDS011;17103;48.316;11.558;2022-10-14T06:43:17;2.95;;;1.75;;
30287;SDS011;17103;48.316;11.558;2022-10-14T06:45:43;3.90;;;1.45;;
30287;SDS011;17103;48.316;11.558;2022-10-14T06:48:09;5.35;;;2.00;;
30287;SDS011;17103;48.316;11.558;2022-10-14T06:50:35;2.55;;;1.63;;
30287;SDS011;17103;48.316;11.558;2022-10-14T06:53:01;3.30;;;1.73;;
30287;SDS011;17103;48.316;11.558;2022-10-14T06:55:27;2.47;;;1.80;;
30287;SDS011;17103;48.316;11.558;2022-10-14T06:57:53;4.97;;;2.00;;
30287;SDS011;17103;48.316;11.558;2022-10-14T07:00:20;4.45;;;1.95;;
30287;SDS011;17103;48.316;11.558;2022-10-14T07:02:46;2.47;;;1.50;;
30287;SDS011;17103;48.316;11.558;2022-10-14T07:05:11;6.30;;;1.70;;
30287;SDS011;17103;48.316;11.558;2022-10-14T07:07:37;6.68;;;2.13;;
30287;SDS011;17103;48.316;11.558;2022-10-14T07:10:03;3.15;;;2.03;;
30287;SDS011;17103;48.316;11.558;2022-10-14T07:12:29;3.38;;;1.60;;
30287;SDS011;17103;48.316;11.558;2022-10-14T07:14:54;4.25;;;1.80;;
30287;SDS011;17103;48.316;11.558;2022-10-14T07:17:21;5.82;;;2.28;;
30287;SDS011;17103;48.316;11.558;2022-10-14T07:19:46;2.03;;;1.48;;
30287;SDS011;17103;48.316;11.558;2022-10-14T07:22:12;6.53;;;2.35;;
30287;SDS011;17103;48.316;11.558;2022-10-14T07:24:38;7.93;;;1.70;;
30287;SDS011;17103;48.316;11.558;2022-10-14T07:27:03;3.75;;;1.83;;
30287;SDS011;17103;48.316;11.558;2022-10-14T07:29:30;3.78;;;1.85;;
30287;SDS011;17103;48.316;11.558;2022-10-14T07:31:56;6.50;;;1.95;;
30287;SDS011;17103;48.316;11.558;2022-10-14T07:34:22;4.00;;;1.95;;
30287;SDS011;17103;48.316;11.558;2022-10-14T07:36:48;3.20;;;1.50;;
30287;SDS011;17103;48.316;11.558;2022-10-14T07:39:13;5.18;;;1.63;;
30287;SDS011;17103;48.316;11.558;2022-10-14T07:41:39;6.93;;;2.72;;
30287;SDS011;17103;48.316;11.558;2022-10-14T07:44:05;3.25;;;2.10;;
30287;SDS011;17103;48.316;11.558;2022-10-14T07:46:34;4.53;;;2.25;;
30287;SDS011;17103;48.316;11.558;2022-10-14T07:51:38;2.75;;;1.98;;
30287;SDS011;17103;48.316;11.558;2022-10-14T07:54:05;5.57;;;2.58;;
30287;SDS011;17103;48.316;11.558;2022-10-14T07:56:36;2.78;;;1.63;;
30287;SDS011;17103;48.316;11.558;2022-10-14T07:59:03;2.33;;;1.63;;
30287;SDS011;17103;48.316;11.558;2022-10-14T08:01:29;4.47;;;1.77;;
30287;SDS011;17103;48.316;11.558;2022-10-14T08:03:55;2.58;;;1.52;;
30287;SDS011;17103;48.316;11.558;2022-10-14T08:06:21;3.35;;;1.88;;
30287;SDS011;17103;48.316;11.558;2022-10-14T08:08:47;3.17;;;1.77;;
30287;SDS011;17103;48.316;11.558;2022-10-14T08:11:14;3.55;;;1.88;;
30287;SDS011;17103;48.316;11.558;2022-10-14T08:13:42;3.05;;;1.58;;
30287;SDS011;17103;48.316;11.558;2022-10-14T08:16:12;3.33;;;1.73;;
30287;SDS011;17103;48.316;11.558;2022-10-14T08:18:39;1.88;;;1.23;;
30287;SDS011;17103;48.316;11.558;2022-10-14T08:21:05;7.60;;;1.90;;
30287;SDS011;17103;48.316;11.558;2022-10-14T08:23:31;2.72;;;1.27;;
30287;SDS011;17103;48.316;11.558;2022-10-14T08:25:57;4.78;;;3.20;;
30287;SDS011;17103;48.316;11.558;2022-10-14T08:28:22;3.78;;;2.33;;
30287;SDS011;17103;48.316;11.558;2022-10-14T08:30:48;3.75;;;1.55;;
30287;SDS011;17103;48.316;11.558;2022-10-14T08:33:14;3.35;;;1.27;;
30287;SDS011;17103;48.316;11.558;2022-10-14T08:35:40;4.40;;;1.40;;
30287;SDS011;17103;48.316;11.558;2022-10-14T08:38:05;2.83;;;1.15;;
30287;SDS011;17103;48.316;11.558;2022-10-14T08:40:32;3.35;;;0.80;;
30287;SDS011;17103;48.316;11.558;2022-10-14T08:43:23;1.90;;;0.98;;
30287;SDS011;17103;48.316;11.558;2022-10-14T08:45:56;1.15;;;1.05;;
30287;SDS011;17103;48.316;11.558;2022-10-14T08:48:30;5.03;;;1.27;;
30287;SDS011;17103;48.316;11.558;2022-10-14T08:50:59;2.63;;;1.02;;
30287;SDS011;17103;48.316;11.558;2022-10-14T08:53:43;1.52;;;1.13;;
30287;SDS011;17103;48.316;11.558;2022-10-14T08:56:13;1.95;;;0.90;;
30287;SDS011;17103;48.316;11.558;2022-10-14T08:58:44;1.48;;;0.80;;
30287;SDS011;17103;48.316;11.558;2022-10-14T09:04:13;2.10;;;0.63;;
30287;SDS011;17103;48.316;11.558;2022-10-14T09:06:41;1.80;;;0.90;;
30287;SDS011;17103;48.316;11.558;2022-10-14T09:11:59;2.75;;;1.38;;
30287;SDS011;17103;48.316;11.558;2022-10-14T09:14:30;0.90;;;0.70;;
30287;SDS011;17103;48.316;11.558;2022-10-14T09:17:01;3.20;;;1.15;;
30287;SDS011;17103;48.316;11.558;2022-10-14T09:19:53;2.05;;;0.65;;
30287;SDS011;17103;48.316;11.558;2022-10-14T09:22:27;1.95;;;0.90;;
30287;SDS011;17103;48.316;11.558;2022-10-14T09:24:52;1.73;;;0.93;;
30287;SDS011;17103;48.316;11.558;2022-10-14T09:27:19;3.22;;;1.00;;
30287;SDS011;17103;48.316;11.558;2022-10-14T09:29:53;2.50;;;0.80;;
30287;SDS011;17103;48.316;11.558;2022-10-14T09:34:57;3.25;;;1.10;;
30287;SDS011;17103;48.316;11.558;2022-10-14T09:37:24;3.03;;;0.82;;
30287;SDS011;17103;48.316;11.558;2022-10-14T09:40:00;1.17;;;0.70;;
30287;SDS011;17103;48.316;11.558;2022-10-14T09:42:39;1.30;;;0.80;;
30287;SDS011;17103;48.316;11.558;2022-10-14T09:45:25;1.55;;;0.65;;
30287;SDS011;17103;48.316;11.558;2022-10-14T09:47:57;1.58;;;0.50;;
30287;SDS011;17103;48.316;11.558;2022-10-14T09:50:35;1.88;;;0.80;;
30287;SDS011;17103;48.316;11.558;2022-10-14T09:53:18;0.80;;;0.60;;
30287;SDS011;17103;48.316;11.558;2022-10-14T09:56:02;3.05;;;1.25;;
30287;SDS011;17103;48.316;11.558;2022-10-14T10:01:22;2.28;;;0.75;;
30287;SDS011;17103;48.316;11.558;2022-10-14T10:03:50;2.75;;;0.95;;
30287;SDS011;17103;48.316;11.558;2022-10-14T10:06:20;0.77;;;0.47;;
30287;SDS011;17103;48.316;11.558;2022-10-14T10:14:24;1.95;;;0.45;;
30287;SDS011;17103;48.316;11.558;2022-10-14T10:16:51;0.85;;;0.45;;
30287;SDS011;17103;48.316;11.558;2022-10-14T10:19:33;1.25;;;0.30;;
30287;SDS011;17103;48.316;11.558;2022-10-14T10:22:22;0.75;;;0.50;;
30287;SDS011;17103;48.316;11.558;2022-10-14T10:25:33;1.08;;;0.50;;
30287;SDS011;17103;48.316;11.558;2022-10-14T10:38:33;0.50;;;0.38;;
30287;SDS011;17103;48.316;11.558;2022-10-14T10:46:50;3.10;;;0.45;;
30287;SDS011;17103;48.316;11.558;2022-10-14T10:49:29;0.60;;;0.35;;
30287;SDS011;17103;48.316;11.558;2022-10-14T10:57:50;0.82;;;0.40;;
30287;SDS011;17103;48.316;11.558;2022-10-14T11:00:13;1.77;;;0.45;;
30287;SDS011;17103;48.316;11.558;2022-10-14T11:05:28;0.50;;;0.30;;
30287;SDS011;17103;48.316;11.558;2022-10-14T11:16:13;1.33;;;0.30;;
30287;SDS011;17103;48.316;11.558;2022-10-14T11:18:49;0.70;;;0.30;;
30287;SDS011;17103;48.316;11.558;2022-10-14T11:38:01;1.25;;;0.50;;
30287;SDS011;17103;48.316;11.558;2022-10-14T11:46:14;1.65;;;0.30;;
30287;SDS011;17103;48.316;11.558;2022-10-14T11:48:44;0.85;;;0.40;;
30287;SDS011;17103;48.316;11.558;2022-10-14T11:51:38;0.40;;;0.20;;
30287;SDS011;17103;48.316;11.558;2022-10-14T11:56:51;1.80;;;0.22;;
30287;SDS011;17103;48.316;11.558;2022-10-14T12:04:57;0.43;;;0.30;;
30287;SDS011;17103;48.316;11.558;2022-10-14T12:07:40;0.80;;;0.38;;
30287;SDS011;17103;48.316;11.558;2022-10-14T12:10:17;2.22;;;0.95;;
30287;SDS011;17103;48.316;11.558;2022-10-14T12:12:52;0.93;;;0.30;;
30287;SDS011;17103;48.316;11.558;2022-10-14T12:15:20;1.10;;;0.30;;
30287;SDS011;17103;48.316;11.558;2022-10-14T12:17:50;1.75;;;0.40;;
30287;SDS011;17103;48.316;11.558;2022-10-14T12:20:28;1.15;;;0.30;;
30287;SDS011;17103;48.316;11.558;2022-10-14T12:23:26;1.05;;;0.30;;
30287;SDS011;17103;48.316;11.558;2022-10-14T12:25:55;1.15;;;0.40;;
30287;SDS011;17103;48.316;11.558;2022-10-14T12:28:28;0.85;;;0.45;;
30287;SDS011;17103;48.316;11.558;2022-10-14T12:31:18;0.90;;;0.38;;
30287;SDS011;17103;48.316;11.558;2022-10-14T12:36:41;1.35;;;0.32;;
30287;SDS011;17103;48.316;11.558;2022-10-14T12:44:41;2.70;;;0.52;;
30287;SDS011;17103;48.316;11.558;2022-10-14T12:47:20;1.27;;;0.40;;
30287;SDS011;17103;48.316;11.558;2022-10-14T12:49:54;0.75;;;0.30;;
30287;SDS011;17103;48.316;11.558;2022-10-14T12:52:23;0.73;;;0.30;;
30287;SDS011;17103;48.316;11.558;2022-10-14T12:54:55;1.88;;;0.35;;
30287;SDS011;17103;48.316;11.558;2022-10-14T12:57:29;0.55;;;0.20;;
30287;SDS011;17103;48.316;11.558;2022-10-14T12:59:58;4.10;;;0.40;;
30287;SDS011;17103;48.316;11.558;2022-10-14T13:02:30;2.08;;;0.35;;
30287;SDS011;17103;48.316;11.558;2022-10-14T13:05:03;2.28;;;0.30;;
30287;SDS011;17103;48.316;11.558;2022-10-14T13:07:44;1.38;;;0.32;;
30287;SDS011;17103;48.316;11.558;2022-10-14T13:18:51;0.80;;;0.38;;
30287;SDS011;17103;48.316;11.558;2022-10-14T13:23:50;1.73;;;0.40;;
30287;SDS011;17103;48.316;11.558;2022-10-14T13:34:37;1.20;;;0.38;;
30287;SDS011;17103;48.316;11.558;2022-10-14T13:40:26;0.63;;;0.32;;
30287;SDS011;17103;48.316;11.558;2022-10-14T13:43:00;0.95;;;0.45;;
30287;SDS011;17103;48.316;11.558;2022-10-14T13:45:49;1.15;;;0.68;;
30287;SDS011;17103;48.316;11.558;2022-10-14T13:48:32;1.38;;;0.38;;
30287;SDS011;17103;48.316;11.558;2022-10-14T13:51:24;2.45;;;0.40;;
30287;SDS011;17103;48.316;11.558;2022-10-14T13:54:21;1.63;;;0.20;;
30287;SDS011;17103;48.316;11.558;2022-10-14T13:59:35;1.27;;;0.43;;
30287;SDS011;17103;48.316;11.558;2022-10-14T14:02:03;0.82;;;0.40;;
30287;SDS011;17103;48.316;11.558;2022-10-14T14:04:48;2.15;;;0.77;;
30287;SDS011;17103;48.316;11.558;2022-10-14T14:07:21;2.70;;;0.50;;
30287;SDS011;17103;48.316;11.558;2022-10-14T14:09:50;1.03;;;0.40;;
30287;SDS011;17103;48.316;11.558;2022-10-14T14:12:19;0.65;;;0.43;;
30287;SDS011;17103;48.316;11.558;2022-10-14T14:14:46;0.85;;;0.50;;
30287;SDS011;17103;48.316;11.558;2022-10-14T14:17:17;2.03;;;0.40;;
30287;SDS011;17103;48.316;11.558;2022-10-14T14:19:48;5.38;;;0.50;;
30287;SDS011;17103;48.316;11.558;2022-10-14T14:22:22;1.25;;;0.80;;
30287;SDS011;17103;48.316;11.558;2022-10-14T14:24:51;0.88;;;0.52;;
30287;SDS011;17103;48.316;11.558;2022-10-14T14:27:33;1.55;;;0.47;;
30287;SDS011;17103;48.316;11.558;2022-10-14T14:29:58;0.98;;;0.50;;
30287;SDS011;17103;48.316;11.558;2022-10-14T14:32:27;1.20;;;0.60;;
30287;SDS011;17103;48.316;11.558;2022-10-14T14:34:55;2.03;;;0.77;;
30287;SDS011;17103;48.316;11.558;2022-10-14T14:37:28;0.85;;;0.40;;
30287;SDS011;17103;48.316;11.558;2022-10-14T14:39:57;1.48;;;0.50;;
30287;SDS011;17103;48.316;11.558;2022-10-14T14:42:24;3.03;;;0.50;;
30287;SDS011;17103;48.316;11.558;2022-10-14T14:44:53;1.70;;;0.70;;
30287;SDS011;17103;48.316;11.558;2022-10-14T14:47:20;1.92;;;0.77;;
30287;SDS011;17103;48.316;11.558;2022-10-14T14:49:46;1.63;;;0.55;;
30287;SDS011;17103;48.316;11.558;2022-10-14T14:52:13;1.08;;;0.50;;
30287;SDS011;17103;48.316;11.558;2022-10-14T14:54:46;3.05;;;0.70;;
30287;SDS011;17103;48.316;11.558;2022-10-14T14:57:14;0.88;;;0.52;;
30287;SDS011;17103;48.316;11.558;2022-10-14T14:59:47;4.40;;;1.05;;
30287;SDS011;17103;48.316;11.558;2022-10-14T15:02:15;3.25;;;0.90;;
30287;SDS011;17103;48.316;11.558;2022-10-14T15:04:44;4.18;;;1.73;;
30287;SDS011;17103;48.316;11.558;2022-10-14T15:07:15;1.55;;;1.10;;
30287;SDS011;17103;48.316;11.558;2022-10-14T15:09:50;3.60;;;2.00;;
30287;SDS011;17103;48.316;11.558;2022-10-14T15:12:28;3.10;;;1.30;;
30287;SDS011;17103;48.316;11.558;2022-10-14T15:15:04;2.97;;;0.98;;
30287;SDS011;17103;48.316;11.558;2022-10-14T15:17:35;2.53;;;1.00;;
30287;SDS011;17103;48.316;11.558;2022-10-14T15:22:35;3.15;;;1.70;;
30287;SDS011;17103;48.316;11.558;2022-10-14T15:25:03;6.22;;;3.35;;
30287;SDS011;17103;48.316;11.558;2022-10-14T15:27:29;5.15;;;2.38;;
30287;SDS011;17103;48.316;11.558;2022-10-14T15:32:42;3.10;;;1.45;;
30287;SDS011;17103;48.316;11.558;2022-10-14T15:35:16;3.45;;;2.33;;
30287;SDS011;17103;48.316;11.558;2022-10-14T15:37:44;3.13;;;2.50;;
30287;SDS011;17103;48.316;11.558;2022-10-14T15:42:38;9.35;;;4.05;;
30287;SDS011;17103;48.316;11.558;2022-10-14T15:45:05;4.78;;;3.70;;
30287;SDS011;17103;48.316;11.558;2022-10-14T15:47:32;5.20;;;2.90;;
30287;SDS011;17103;48.316;11.558;2022-10-14T15:49:57;3.08;;;1.88;;
30287;SDS011;17103;48.316;11.558;2022-10-14T15:52:23;2.50;;;1.70;;
30287;SDS011;17103;48.316;11.558;2022-10-14T15:54:50;3.47;;;1.15;;
30287;SDS011;17103;48.316;11.558;2022-10-14T15:57:17;2.20;;;1.17;;
30287;SDS011;17103;48.316;11.558;2022-10-14T15:59:43;2.63;;;1.40;;
30287;SDS011;17103;48.316;11.558;2022-10-14T16:02:16;2.10;;;1.17;;
30287;SDS011;17103;48.316;11.558;2022-10-14T16:04:52;4.22;;;2.20;;
30287;SDS011;17103;48.316;11.558;2022-10-14T16:07:17;3.13;;;2.03;;
30287;SDS011;17103;48.316;11.558;2022-10-14T16:09:43;3.88;;;2.22;;
30287;SDS011;17103;48.316;11.558;2022-10-14T16:12:12;3.15;;;2.20;;
30287;SDS011;17103;48.316;11.558;2022-10-14T16:14:39;2.92;;;2.28;;
30287;SDS011;17103;48.316;11.558;2022-10-14T16:17:05;3.00;;;2.38;;
30287;SDS011;17103;48.316;11.558;2022-10-14T16:19:31;2.88;;;1.92;;
30287;SDS011;17103;48.316;11.558;2022-10-14T16:21:57;4.22;;;1.65;;
30287;SDS011;17103;48.316;11.558;2022-10-14T16:24:22;6.00;;;2.10;;
30287;SDS011;17103;48.316;11.558;2022-10-14T16:26:49;2.88;;;1.83;;
30287;SDS011;17103;48.316;11.558;2022-10-14T16:29:15;2.17;;;1.48;;
30287;SDS011;17103;48.316;11.558;2022-10-14T16:31:45;3.00;;;1.70;;
30287;SDS011;17103;48.316;11.558;2022-10-14T16:34:14;4.03;;;1.55;;
30287;SDS011;17103;48.316;11.558;2022-10-14T16:36:40;3.10;;;1.63;;
30287;SDS011;17103;48.316;11.558;2022-10-14T16:39:07;3.17;;;1.70;;
30287;SDS011;17103;48.316;11.558;2022-10-14T16:41:34;2.90;;;1.83;;
30287;SDS011;17103;48.316;11.558;2022-10-14T16:44:00;5.28;;;2.63;;
30287;SDS011;17103;48.316;11.558;2022-10-14T16:46:26;3.75;;;2.15;;
30287;SDS011;17103;48.316;11.558;2022-10-14T16:49:10;4.50;;;3.15;;
30287;SDS011;17103;48.316;11.558;2022-10-14T16:51:36;4.18;;;2.55;;
30287;SDS011;17103;48.316;11.558;2022-10-14T16:54:02;2.63;;;2.13;;
30287;SDS011;17103;48.316;11.558;2022-10-14T16:56:28;1.48;;;1.38;;
30287;SDS011;17103;48.316;11.558;2022-10-14T16:59:12;3.80;;;1.42;;
30287;SDS011;17103;48.316;11.558;2022-10-14T17:01:38;3.08;;;1.67;;
30287;SDS011;17103;48.316;11.558;2022-10-14T17:04:04;7.63;;;5.30;;
30287;SDS011;17103;48.316;11.558;2022-10-14T17:06:30;4.78;;;2.40;;
30287;SDS011;17103;48.316;11.558;2022-10-14T17:08:56;4.53;;;2.10;;
30287;SDS011;17103;48.316;11.558;2022-10-14T17:11:22;3.15;;;1.52;;
30287;SDS011;17103;48.316;11.558;2022-10-14T17:13:54;1.60;;;1.35;;
30287;SDS011;17103;48.316;11.558;2022-10-14T17:16:21;4.05;;;2.17;;
30287;SDS011;17103;48.316;11.558;2022-10-14T17:18:47;4.15;;;1.73;;